| time (UTC) | temp F | wind direction | speed MPH | gust MPH | rain 1hr in | rain 24hr in | rain mn in | humidity % | barometer mb |
| 20260831064525 | 71 | 33 | 9.0 | 15.0 | 0.33 | 0.33 | 0.33 | 91 | 1019.8 |
| 20260831063027 | 71 | 57 | 0.0 | 11.0 | 0.31 | 0.31 | 0.31 | 91 | 1019.7 |
| 20260831061532 | 71 | 348 | 3.0 | 9.0 | 0.31 | 0.31 | 0.31 | 90 | 1019.6 |
| 20260831060029 | 72 | 348 | 10.0 | 15.0 | 0.05 | 0.05 | 0.05 | 87 | 1019.8 |
| 20260831054518 | 74 | 336 | 9.0 | 19.0 | 0.00 | 0.00 | 0.00 | 81 | 1019.8 |
| 20260831053026 | 76 | 327 | 10.0 | 15.0 | 0.00 | 0.00 | 0.00 | 84 | 1020.1 |
| 20260831051528 | 76 | 215 | 1.0 | 8.0 | 0.00 | 0.00 | 0.00 | 82 | 1019.6 |
| 20260831050032 | 76 | 221 | 3.0 | 10.0 | 0.00 | 0.00 | 0.00 | 82 | 1019.4 |
| 20260831044531 | 76 | 212 | 3.0 | 9.0 | 0.00 | 0.00 | 0.00 | 83 | 1019.4 |
| 20260831043033 | 76 | 220 | 4.0 | 9.0 | 0.00 | 0.00 | 0.00 | 83 | 1019.5 |
| 20260831041504 | 76 | 234 | 4.0 | 10.0 | 0.00 | 0.00 | 0.00 | 85 | 1019.5 |
| 20260831040011 | 76 | 224 | 5.0 | 11.0 | 0.00 | 0.00 | 0.00 | 86 | 1019.6 |
| 20260831034512 | 76 | 254 | 6.0 | 14.0 | 0.00 | 0.00 | 0.00 | 85 | 1019.6 |
| 20260831033019 | 77 | 227 | 5.0 | 11.0 | 0.00 | 0.00 | 0.00 | 86 | 1019.6 |
| 20260831031526 | 77 | 194 | 6.0 | 11.0 | 0.00 | 0.00 | 0.00 | 86 | 1019.6 |
| 20260831030005 | 77 | 206 | 8.0 | 15.0 | 0.00 | 0.00 | 0.00 | 86 | 1019.6 |
| 20260831024519 | 77 | 208 | 7.0 | 16.0 | 0.00 | 0.00 | 0.00 | 86 | 1019.9 |
| 20260831023011 | 77 | 200 | 9.0 | 17.0 | 0.00 | 0.00 | 0.00 | 86 | 1020.1 |
| 20260831021519 | 77 | 194 | 11.0 | 19.0 | 0.00 | 0.00 | 0.00 | 85 | 1020.1 |
| 20260831020023 | 77 | 195 | 9.0 | 19.0 | 0.00 | 0.00 | 0.00 | 85 | 1020.2 |
| 20260831014530 | 77 | 222 | 9.0 | 19.0 | 0.00 | 0.00 | 0.00 | 85 | 1020.2 |
| 20260831013020 | 77 | 223 | 9.0 | 20.0 | 0.00 | 0.00 | 0.00 | 85 | 1020.2 |
| 20260831011519 | 77 | 247 | 8.0 | 22.0 | 0.00 | 0.00 | 0.00 | 84 | 1020.1 |
| 20260831010026 | 77 | 193 | 10.0 | 21.0 | 0.00 | 0.00 | 0.00 | 84 | 1020.3 |
| 20260831004528 | 77 | 223 | 9.0 | 19.0 | 0.00 | 0.00 | 0.00 | 84 | 1020.0 |
| 20260831003031 | 77 | 175 | 7.0 | 18.0 | 0.00 | 0.00 | 0.00 | 83 | 1020.0 |
| 20260831001522 | 77 | 202 | 9.0 | 20.0 | 0.00 | 0.00 | 0.00 | 83 | 1019.9 |
| 20260831000020 | 78 | 212 | 5.0 | 17.0 | 0.00 | 0.00 | 0.00 | 82 | 1020.0 |
| 20260830234528 | 78 | 219 | 11.0 | 18.0 | 0.00 | 0.00 | 0.00 | 81 | 1019.9 |
| 20260830233030 | 78 | 217 | 8.0 | 16.0 | 0.00 | 0.00 | 0.00 | 81 | 1020.0 |
| 20260830231531 | 79 | 225 | 6.0 | 16.0 | 0.00 | 0.00 | 0.00 | 79 | 1020.0 |
| 20260830230016 | 80 | 211 | 5.0 | 15.0 | 0.00 | 0.00 | 0.00 | 77 | 1020.0 |
| 20260830224520 | 80 | 204 | 6.0 | 14.0 | 0.00 | 0.00 | 0.00 | 77 | 1020.0 |
| 20260830223027 | 81 | 192 | 7.0 | 16.0 | 0.00 | 0.00 | 0.00 | 75 | 1020.0 |
| 20260830221528 | 80 | 216 | 8.0 | 18.0 | 0.00 | 0.00 | 0.00 | 76 | 1020.1 |
| 20260830220003 | 80 | 178 | 10.0 | 16.0 | 0.00 | 0.00 | 0.00 | 76 | 1020.1 |
| 20260830214508 | 80 | 180 | 8.0 | 18.0 | 0.00 | 0.00 | 0.00 | 75 | 1020.1 |
| 20260830213004 | 82 | 140 | 10.0 | 15.0 | 0.00 | 0.00 | 0.00 | 70 | 1020.1 |
| 20260830211503 | 83 | 200 | 8.0 | 16.0 | 0.00 | 0.00 | 0.00 | 68 | 1020.1 |
| 20260830210004 | 85 | 220 | 9.0 | 15.0 | 0.00 | 0.00 | 0.00 | 67 | 1020.1 |
| 20260830204504 | 85 | 200 | 9.0 | 16.0 | 0.00 | 0.00 | 0.00 | 67 | 1020.2 |
| 20260830203013 | 85 | 178 | 7.0 | 16.0 | 0.00 | 0.00 | 0.00 | 66 | 1020.3 |
| 20260830201504 | 85 | 200 | 7.0 | 15.0 | 0.00 | 0.00 | 0.00 | 65 | 1020.4 |
| 20260830200005 | 85 | 232 | 8.0 | 15.0 | 0.00 | 0.00 | 0.00 | 65 | 1020.5 |
| 20260830194504 | 84 | 234 | 8.0 | 18.0 | 0.00 | 0.00 | 0.00 | 66 | 1020.5 |
| 20260830193005 | 83 | 185 | 11.0 | 21.0 | 0.00 | 0.00 | 0.00 | 67 | 1020.6 |
| 20260830191506 | 84 | 201 | 11.0 | 18.0 | 0.00 | 0.00 | 0.00 | 65 | 1020.6 |
| 20260830190006 | 84 | 187 | 8.0 | 19.0 | 0.00 | 0.00 | 0.00 | 65 | 1021.1 |
| 20260830184508 | 83 | 172 | 10.0 | 19.0 | 0.00 | 0.00 | 0.00 | 65 | 1021.1 |
| 20260830183008 | 83 | 173 | 10.0 | 17.0 | 0.00 | 0.00 | 0.00 | 64 | 1021.3 |
| 20260830181508 | 83 | 148 | 10.0 | 19.0 | 0.00 | 0.00 | 0.00 | 67 | 1021.4 |
| 20260830180011 | 83 | 171 | 10.0 | 17.0 | 0.00 | 0.00 | 0.00 | 67 | 1021.6 |
| 20260830174507 | 83 | 204 | 9.0 | 16.0 | 0.00 | 0.00 | 0.00 | 67 | 1021.9 |
| 20260830173012 | 83 | 171 | 9.0 | 19.0 | 0.00 | 0.00 | 0.00 | 65 | 1022.0 |
| 20260830171510 | 83 | 160 | 8.0 | 16.0 | 0.00 | 0.00 | 0.00 | 64 | 1022.2 |
| 20260830170013 | 83 | 171 | 8.0 | 14.0 | 0.00 | 0.00 | 0.00 | 65 | 1022.5 |
| 20260830164514 | 82 | 190 | 9.0 | 16.0 | 0.00 | 0.00 | 0.00 | 65 | 1022.7 |
| 20260830163008 | 82 | 213 | 8.0 | 15.0 | 0.00 | 0.00 | 0.00 | 66 | 1022.7 |
| 20260830161518 | 82 | 159 | 8.0 | 16.0 | 0.00 | 0.00 | 0.00 | 65 | 1022.6 |
| 20260830160018 | 82 | 186 | 9.0 | 15.0 | 0.00 | 0.00 | 0.00 | 65 | 1022.6 |
| 20260830154515 | 82 | 192 | 7.0 | 15.0 | 0.00 | 0.00 | 0.00 | 63 | 1022.6 |
| 20260830153031 | 81 | 163 | 6.0 | 14.0 | 0.00 | 0.00 | 0.00 | 64 | 1022.6 |
| 20260830151507 | 81 | 219 | 4.0 | 11.0 | 0.00 | 0.00 | 0.00 | 63 | 1022.8 |
| 20260830150013 | 80 | 165 | 4.0 | 12.0 | 0.00 | 0.00 | 0.00 | 66 | 1022.9 |
| 20260830144517 | 80 | 205 | 5.0 | 11.0 | 0.00 | 0.00 | 0.00 | 64 | 1023.0 |
| 20260830143020 | 80 | 213 | 3.0 | 12.0 | 0.00 | 0.00 | 0.00 | 66 | 1023.0 |
| 20260830141520 | 79 | 170 | 3.0 | 10.0 | 0.00 | 0.00 | 0.00 | 66 | 1023.1 |
| 20260830140016 | 79 | 231 | 5.0 | 14.0 | 0.00 | 0.00 | 0.00 | 67 | 1023.4 |
| 20260830134520 | 79 | 228 | 4.0 | 10.0 | 0.00 | 0.00 | 0.00 | 67 | 1023.4 |
| 20260830133031 | 78 | 175 | 5.0 | 12.0 | 0.00 | 0.00 | 0.00 | 67 | 1023.5 |
| 20260830131536 | 78 | 210 | 5.0 | 11.0 | 0.00 | 0.00 | 0.00 | 67 | 1023.6 |
| 20260830130017 | 77 | 234 | 6.0 | 14.0 | 0.00 | 0.00 | 0.00 | 68 | 1023.7 |
| 20260830124517 | 76 | 195 | 6.0 | 13.0 | 0.00 | 0.00 | 0.00 | 70 | 1023.8 |
| 20260830123030 | 75 | 175 | 5.0 | 12.0 | 0.00 | 0.00 | 0.00 | 73 | 1023.9 |
| 20260830121523 | 74 | 163 | 4.0 | 11.0 | 0.00 | 0.00 | 0.00 | 73 | 1023.9 |
| 20260830120022 | 73 | 201 | 2.0 | 9.0 | 0.00 | 0.00 | 0.00 | 78 | 1023.9 |
| 20260830114522 | 72 | 232 | 1.0 | 3.0 | 0.00 | 0.00 | 0.00 | 81 | 1024.0 |
| 20260830113020 | 71 | 244 | 0.0 | 0.0 | 0.00 | 0.00 | 0.00 | 83 | 1023.9 |
| 20260830111524 | 70 | 244 | 0.0 | 0.0 | 0.00 | 0.00 | 0.00 | 83 | 1023.9 |
| 20260830110020 | 69 | 244 | 0.0 | 0.0 | 0.00 | 0.00 | 0.00 | 83 | 1023.8 |
| 20260830104525 | 69 | 244 | 0.0 | 0.0 | 0.00 | 0.00 | 0.00 | 82 | 1023.6 |
| 20260830103026 | 69 | 244 | 0.0 | 0.0 | 0.00 | 0.00 | 0.00 | 82 | 1023.6 |
| 20260830101526 | 69 | 244 | 0.0 | 0.0 | 0.00 | 0.00 | 0.00 | 83 | 1023.6 |
| 20260830100026 | 69 | 244 | 0.0 | 0.0 | 0.00 | 0.00 | 0.00 | 83 | 1023.6 |
| 20260830094529 | 69 | 244 | 0.0 | 0.0 | 0.00 | 0.00 | 0.00 | 83 | 1023.6 |
| 20260830093012 | 68 | 244 | 0.0 | 0.0 | 0.00 | 0.00 | 0.00 | 83 | 1023.7 |
| 20260830091535 | 68 | 244 | 0.0 | 0.0 | 0.00 | 0.00 | 0.00 | 84 | 1023.7 |
| 20260830090023 | 69 | 244 | 0.0 | 0.0 | 0.00 | 0.00 | 0.00 | 84 | 1023.7 |
| 20260830084530 | 69 | 244 | 0.0 | 0.0 | 0.00 | 0.00 | 0.00 | 85 | 1023.6 |
| 20260830083008 | 69 | 244 | 0.0 | 0.0 | 0.00 | 0.00 | 0.00 | 85 | 1023.5 |
| 20260830081517 | 69 | 244 | 0.0 | 2.0 | 0.00 | 0.00 | 0.00 | 85 | 1023.6 |
| 20260830080020 | 69 | 243 | 0.0 | 0.0 | 0.00 | 0.00 | 0.00 | 84 | 1023.7 |
| 20260830074527 | 69 | 243 | 0.0 | 0.0 | 0.00 | 0.00 | 0.00 | 84 | 1023.7 |
| 20260830073028 | 68 | 242 | 0.0 | 0.0 | 0.00 | 0.00 | 0.00 | 83 | 1023.6 |
| 20260830071510 | 69 | 242 | 0.0 | 0.0 | 0.00 | 0.00 | 0.00 | 83 | 1023.7 |
| 20260830070016 | 69 | 242 | 0.0 | 0.0 | 0.00 | 0.00 | 0.00 | 82 | 1023.8 |